Time;durP1;ratioP1;P1;durP2;ratioP2;P2;SDS_P1;SDS_P2;PMS_P1;PMS_P2;Temp;Humidity;BMP_temperature;BMP_pressure;BME280_temperature;BME280_humidity;BME280_pressure;Samples;Min_cycle;Max_cycle;Signal;HPM_P1;HPM_P2
2022/01/23 00:00:47;;;;;;;11.00;6.23;;;4.60;99.90;;;;;;4977741;28;20180;-72
2022/01/23 00:03:21;;;;;;;9.10;6.23;;;4.60;99.90;;;;;;4979585;28;20712;-72
2022/01/23 00:05:50;;;;;;;9.13;6.80;;;4.60;99.90;;;;;;4958342;28;20663;-74
2022/01/23 00:08:20;;;;;;;8.87;6.37;;;4.60;99.90;;;;;;4971340;28;20196;-74
2022/01/23 00:10:46;;;;;;;11.47;6.83;;;4.60;99.90;;;;;;4974207;28;20180;-74
2022/01/23 00:13:23;;;;;;;9.67;6.57;;;4.70;99.90;;;;;;4976242;28;20664;-75
2022/01/23 00:18:33;;;;;;;9.23;6.30;;;4.60;99.90;;;;;;4976532;28;20183;-72
2022/01/23 00:20:59;;;;;;;9.33;6.63;;;4.60;99.90;;;;;;4976737;28;20187;-72
2022/01/23 00:23:33;;;;;;;8.77;6.00;;;4.60;99.90;;;;;;4953782;28;20263;-75
2022/01/23 00:31:29;;;;;;;7.90;5.40;;;4.60;99.90;;;;;;4976801;28;20316;-74
2022/01/23 00:33:55;;;;;;;9.60;6.27;;;4.60;99.90;;;;;;4981348;28;20223;-73
2022/01/23 00:36:25;;;;;;;7.17;5.80;;;4.70;99.90;;;;;;4969929;28;20188;-74
2022/01/23 00:38:51;;;;;;;7.53;5.30;;;4.70;99.90;;;;;;4977372;28;20688;-73
2022/01/23 00:41:18;;;;;;;8.40;5.40;;;4.70;99.90;;;;;;4977008;28;20192;-73
2022/01/23 00:43:45;;;;;;;7.47;5.20;;;4.70;99.90;;;;;;4974493;28;20299;-73
2022/01/23 00:51:34;;;;;;;7.63;5.37;;;4.60;99.90;;;;;;4973743;28;20250;-73
2022/01/23 00:54:02;;;;;;;6.80;4.93;;;4.60;99.90;;;;;;4976147;28;20224;-73
2022/01/23 00:56:27;;;;;;;7.77;5.40;;;4.60;99.90;;;;;;4975332;28;20527;-74
2022/01/23 00:58:53;;;;;;;8.57;5.70;;;4.70;99.90;;;;;;4975602;28;20242;-73
2022/01/23 01:01:19;;;;;;;8.63;5.40;;;4.60;99.90;;;;;;4974427;28;20189;-74
2022/01/23 01:03:46;;;;;;;7.13;5.30;;;4.60;99.90;;;;;;4977449;28;20707;-73
2022/01/23 01:06:12;;;;;;;7.93;4.90;;;4.60;99.90;;;;;;4977657;28;20268;-73
2022/01/23 01:08:38;;;;;;;7.70;5.50;;;4.70;99.90;;;;;;4974219;28;20263;-74
2022/01/23 01:11:37;;;;;;;9.63;6.07;;;4.60;99.90;;;;;;4977275;28;20866;-73
2022/01/23 01:16:57;;;;;;;8.07;5.57;;;4.70;99.90;;;;;;4975123;28;20550;-72
2022/01/23 01:35:28;;;;;;;9.37;5.23;;;4.70;99.90;;;;;;4973953;28;20192;-73
2022/01/23 01:37:54;;;;;;;6.00;4.80;;;4.70;99.90;;;;;;4972091;28;20192;-74
2022/01/23 01:40:22;;;;;;;8.10;5.40;;;4.70;99.90;;;;;;4972662;28;20212;-72
2022/01/23 01:42:47;;;;;;;9.30;6.20;;;4.80;99.90;;;;;;4975398;28;20221;-73
2022/01/23 01:45:13;;;;;;;11.13;6.50;;;4.70;99.90;;;;;;4976946;28;20208;-74
2022/01/23 01:47:50;;;;;;;10.03;5.73;;;4.70;99.90;;;;;;4972872;28;20184;-73
2022/01/23 01:50:16;;;;;;;9.63;6.40;;;4.70;99.90;;;;;;4973281;28;20289;-73
2022/01/23 01:52:42;;;;;;;11.27;6.47;;;4.60;99.90;;;;;;4975435;28;20263;-72
2022/01/23 01:55:12;;;;;;;8.30;5.60;;;4.50;99.90;;;;;;4973858;28;20218;-72
2022/01/23 01:57:44;;;;;;;12.30;6.43;;;4.50;99.90;;;;;;4979753;28;20180;-72
2022/01/23 02:00:36;;;;;;;12.43;7.03;;;4.40;99.90;;;;;;4975577;28;20552;-75
2022/01/23 02:08:27;;;;;;;12.60;7.63;;;4.30;99.90;;;;;;4974498;28;20718;-72
2022/01/23 02:11:02;;;;;;;12.27;7.73;;;4.30;99.90;;;;;;4977755;28;20267;-72
2022/01/23 02:13:40;;;;;;;14.90;7.83;;;4.30;99.90;;;;;;4965301;28;20239;-74
2022/01/23 02:54:27;;;;;;;10.97;6.80;;;4.40;99.90;;;;;;4971042;28;20212;-73
2022/01/23 02:56:56;;;;;;;10.43;6.60;;;4.30;99.90;;;;;;4959689;28;20184;-73
2022/01/23 03:04:36;;;;;;;12.20;6.40;;;4.30;99.90;;;;;;4977095;28;20223;-73
2022/01/23 03:09:56;;;;;;;10.30;6.87;;;4.30;99.90;;;;;;4978069;28;20188;-73
2022/01/23 03:31:33;;;;;;;10.77;7.13;;;4.40;99.90;;;;;;4977577;28;20183;-76
2022/01/23 03:34:00;;;;;;;12.17;7.33;;;4.40;99.90;;;;;;4975319;28;20259;-72
2022/01/23 03:36:25;;;;;;;12.97;7.73;;;4.40;99.90;;;;;;4979739;28;20173;-72
2022/01/23 03:38:51;;;;;;;12.83;7.40;;;4.40;99.90;;;;;;4974211;28;20184;-72
2022/01/23 03:41:17;;;;;;;12.07;7.70;;;4.50;99.90;;;;;;4975211;28;20566;-72
2022/01/23 03:43:43;;;;;;;12.93;7.93;;;4.50;99.90;;;;;;4975154;28;20832;-71
2022/01/23 03:51:35;;;;;;;11.83;6.93;;;4.40;99.90;;;;;;4977089;28;20220;-72
2022/01/23 03:54:01;;;;;;;10.33;6.60;;;4.40;99.90;;;;;;4977961;28;20223;-72
2022/01/23 03:56:30;;;;;;;10.63;7.23;;;4.40;99.90;;;;;;4975178;28;20219;-72
2022/01/23 03:58:57;;;;;;;12.27;7.53;;;4.40;99.90;;;;;;4977864;28;20279;-72
2022/01/23 04:01:23;;;;;;;10.77;7.40;;;4.40;99.90;;;;;;4975433;28;20181;-73
2022/01/23 04:03:51;;;;;;;9.40;6.10;;;4.40;99.90;;;;;;4975129;28;20212;-74
2022/01/23 04:06:16;;;;;;;9.37;6.10;;;4.30;99.90;;;;;;4977480;28;20625;-71
2022/01/23 04:08:42;;;;;;;10.77;5.90;;;4.30;99.90;;;;;;4975989;28;20183;-74
2022/01/23 04:11:08;;;;;;;8.43;5.77;;;4.30;99.90;;;;;;4978102;28;20192;-75
2022/01/23 04:13:48;;;;;;;9.10;6.30;;;4.30;99.90;;;;;;4977964;28;20291;-73
2022/01/23 04:31:39;;;;;;;12.50;6.40;;;4.30;99.90;;;;;;4978309;28;20188;-72
2022/01/23 04:45:36;;;;;;;11.47;7.13;;;4.30;99.90;;;;;;4977108;28;20669;-73
2022/01/23 05:01:53;;;;;;;11.37;6.70;;;4.40;99.90;;;;;;4978866;28;20218;-72
2022/01/23 05:04:28;;;;;;;12.43;6.83;;;4.30;99.90;;;;;;4955858;28;20660;-72
2022/01/23 05:07:00;;;;;;;13.13;7.97;;;4.30;99.90;;;;;;4980690;28;20198;-73
2022/01/23 05:09:27;;;;;;;12.77;8.40;;;4.30;99.90;;;;;;4970112;28;20694;-74
2022/01/23 05:12:00;;;;;;;12.37;7.87;;;4.30;99.90;;;;;;4975419;28;20203;-73
2022/01/23 05:14:39;;;;;;;11.60;7.93;;;4.30;99.90;;;;;;4973791;28;20203;-73
2022/01/23 05:17:07;;;;;;;11.80;7.80;;;4.30;99.90;;;;;;4973966;28;20247;-73
2022/01/23 05:19:33;;;;;;;14.33;8.23;;;4.30;99.90;;;;;;4974525;28;20251;-73
2022/01/23 05:24:35;;;;;;;11.70;7.27;;;4.30;99.90;;;;;;4973035;28;20220;-73
2022/01/23 05:27:04;;;;;;;16.50;8.17;;;4.30;99.90;;;;;;4957275;28;20184;-73
2022/01/23 05:29:30;;;;;;;11.70;7.23;;;4.30;99.90;;;;;;4977273;28;20181;-72
2022/01/23 05:31:56;;;;;;;10.10;6.50;;;4.30;99.90;;;;;;4972729;28;20194;-75
2022/01/23 05:34:23;;;;;;;11.23;6.90;;;4.30;99.90;;;;;;4975428;28;20209;-73
2022/01/23 05:36:49;;;;;;;10.37;7.17;;;4.40;99.90;;;;;;4975177;28;20766;-73
2022/01/23 05:39:18;;;;;;;9.90;6.67;;;4.40;99.90;;;;;;4974490;28;20184;-73
2022/01/23 05:41:44;;;;;;;12.50;7.07;;;4.40;99.90;;;;;;4976444;28;20184;-73
2022/01/23 05:44:09;;;;;;;12.07;7.57;;;4.40;99.90;;;;;;4974814;28;20640;-73
2022/01/23 05:46:35;;;;;;;13.10;8.07;;;4.40;99.90;;;;;;4972205;28;20582;-73
2022/01/23 05:49:01;;;;;;;11.80;7.90;;;4.40;99.90;;;;;;4974087;28;20263;-73
2022/01/23 05:51:26;;;;;;;12.13;7.93;;;4.40;99.90;;;;;;4978429;28;20211;-73
2022/01/23 05:53:52;;;;;;;11.77;7.87;;;4.40;99.90;;;;;;4975850;28;20208;-73
2022/01/23 05:56:18;;;;;;;11.77;7.73;;;4.50;99.90;;;;;;4976906;28;20181;-74
2022/01/23 05:58:44;;;;;;;12.40;8.60;;;4.60;99.90;;;;;;4973399;28;20239;-73
2022/01/23 06:01:10;;;;;;;11.40;7.67;;;4.50;99.90;;;;;;4970596;28;20196;-74
2022/01/23 06:03:35;;;;;;;12.80;8.00;;;4.50;99.90;;;;;;4976361;28;20568;-73
2022/01/23 06:06:02;;;;;;;12.40;7.93;;;4.50;99.90;;;;;;4974944;28;20232;-74
2022/01/23 06:08:28;;;;;;;16.27;8.37;;;4.60;99.90;;;;;;4972955;28;20271;-75
2022/01/23 06:10:56;;;;;;;14.37;8.07;;;4.60;99.90;;;;;;4976364;28;20185;-73
2022/01/23 06:13:23;;;;;;;12.80;8.57;;;4.60;99.90;;;;;;4971880;28;20232;-73
2022/01/23 06:15:48;;;;;;;11.27;8.10;;;4.50;99.90;;;;;;4969597;28;20219;-73
2022/01/23 06:18:14;;;;;;;13.70;8.07;;;4.50;99.90;;;;;;4974846;28;20557;-73
2022/01/23 06:20:40;;;;;;;13.47;8.20;;;4.50;99.90;;;;;;4976400;28;20192;-73
2022/01/23 06:23:05;;;;;;;13.30;8.10;;;4.50;99.90;;;;;;4975559;28;20223;-73
2022/01/23 06:25:36;;;;;;;12.30;7.87;;;4.60;99.90;;;;;;4968190;28;20189;-73
2022/01/23 06:28:08;;;;;;;14.53;8.20;;;4.60;99.90;;;;;;4975356;28;20184;-72
2022/01/23 06:30:34;;;;;;;13.10;7.30;;;4.50;99.90;;;;;;4970300;28;20589;-73
2022/01/23 06:33:00;;;;;;;12.87;8.63;;;4.50;99.90;;;;;;4970642;28;20292;-73
2022/01/23 06:35:27;;;;;;;13.40;8.13;;;4.50;99.90;;;;;;4973481;28;20689;-72
2022/01/23 06:37:52;;;;;;;12.40;8.10;;;4.60;99.90;;;;;;4975862;28;20215;-73
2022/01/23 06:40:20;;;;;;;12.07;7.83;;;4.60;99.90;;;;;;4974238;28;20239;-73
2022/01/23 06:42:45;;;;;;;11.07;7.00;;;4.60;99.90;;;;;;4971775;28;20295;-73
2022/01/23 06:45:11;;;;;;;11.47;7.70;;;4.60;99.90;;;;;;4973486;28;20287;-73
2022/01/23 06:47:37;;;;;;;12.77;7.83;;;4.60;99.90;;;;;;4973786;28;20280;-73
2022/01/23 06:50:04;;;;;;;12.83;7.83;;;4.50;99.90;;;;;;4972638;28;20196;-72
2022/01/23 06:52:29;;;;;;;13.50;7.43;;;4.60;99.90;;;;;;4971881;28;20196;-72
2022/01/23 06:54:55;;;;;;;13.63;7.93;;;4.50;99.90;;;;;;4978283;28;20212;-72
2022/01/23 06:57:20;;;;;;;11.47;7.73;;;4.50;99.90;;;;;;4973696;28;20267;-72
2022/01/23 06:59:46;;;;;;;11.00;7.83;;;4.50;99.90;;;;;;4974341;28;20256;-72
2022/01/23 07:02:12;;;;;;;11.37;7.23;;;4.60;99.90;;;;;;4973538;28;20232;-73
2022/01/23 07:04:37;;;;;;;11.03;6.63;;;4.60;99.90;;;;;;4969055;28;20225;-73
2022/01/23 07:07:03;;;;;;;10.53;7.13;;;4.50;99.90;;;;;;4972048;28;20224;-73
2022/01/23 07:09:29;;;;;;;10.40;6.67;;;4.50;99.90;;;;;;4974221;28;20230;-72
2022/01/23 07:11:55;;;;;;;9.97;6.50;;;4.50;99.90;;;;;;4971923;28;20881;-72
2022/01/23 07:14:20;;;;;;;9.93;6.40;;;4.50;99.90;;;;;;4971914;28;20641;-72
2022/01/23 07:16:46;;;;;;;11.73;7.23;;;4.50;99.90;;;;;;4972824;28;20716;-72
2022/01/23 07:19:12;;;;;;;10.73;6.67;;;4.50;99.90;;;;;;4974762;28;20648;-72
2022/01/23 07:21:38;;;;;;;9.20;6.60;;;4.60;99.90;;;;;;4972977;28;20196;-74
2022/01/23 07:24:03;;;;;;;11.63;6.80;;;4.50;99.90;;;;;;4970901;28;20216;-72
2022/01/23 07:26:30;;;;;;;9.70;6.73;;;4.50;99.90;;;;;;4972589;28;20244;-72
2022/01/23 07:28:59;;;;;;;10.83;6.40;;;4.50;99.90;;;;;;4969611;28;20181;-72
2022/01/23 07:34:02;;;;;;;7.83;5.67;;;4.50;99.90;;;;;;4974955;28;20212;-73
2022/01/23 07:36:28;;;;;;;9.00;5.90;;;4.50;99.90;;;;;;4973905;28;20719;-73
2022/01/23 07:38:54;;;;;;;8.97;6.03;;;4.50;99.90;;;;;;4975215;28;20283;-73
2022/01/23 07:41:20;;;;;;;9.07;5.73;;;4.50;99.90;;;;;;4971295;28;20577;-73
2022/01/23 07:43:46;;;;;;;8.83;5.73;;;4.60;99.90;;;;;;4972055;28;20295;-73
2022/01/23 07:46:11;;;;;;;8.97;5.53;;;4.60;99.90;;;;;;4975093;28;20278;-73
2022/01/23 07:48:37;;;;;;;8.90;6.00;;;4.50;99.90;;;;;;4978263;28;20535;-73
2022/01/23 07:51:04;;;;;;;8.10;5.73;;;4.60;99.90;;;;;;4975546;28;20310;-73
2022/01/23 07:53:29;;;;;;;7.57;5.37;;;4.60;99.90;;;;;;4975150;28;20208;-73
2022/01/23 07:55:55;;;;;;;7.77;5.47;;;4.60;99.90;;;;;;4979357;28;20200;-73
2022/01/23 07:58:21;;;;;;;10.97;7.13;;;4.70;99.90;;;;;;4978018;28;20851;-72
2022/01/23 08:00:49;;;;;;;8.97;5.97;;;4.70;99.90;;;;;;4974492;28;20199;-73
2022/01/23 08:03:15;;;;;;;7.40;5.70;;;4.70;99.90;;;;;;4959346;28;20282;-75
2022/01/23 08:05:43;;;;;;;7.50;5.37;;;4.60;99.90;;;;;;4983942;28;20242;-73
2022/01/23 08:08:09;;;;;;;6.77;4.90;;;4.60;99.90;;;;;;4976461;28;20189;-73
2022/01/23 08:10:34;;;;;;;8.83;5.47;;;4.70;99.90;;;;;;4976920;28;20660;-73
2022/01/23 08:13:03;;;;;;;8.07;5.50;;;4.60;99.90;;;;;;4976381;28;20205;-73
2022/01/23 08:15:29;;;;;;;7.17;5.03;;;4.60;99.90;;;;;;4972982;28;20645;-73
2022/01/23 08:18:02;;;;;;;6.57;4.63;;;4.70;99.90;;;;;;4975156;28;20189;-72
2022/01/23 08:20:29;;;;;;;7.13;5.17;;;4.80;99.90;;;;;;4973175;28;20545;-73
2022/01/23 08:22:55;;;;;;;7.30;5.40;;;4.80;99.90;;;;;;4978244;28;20216;-73
2022/01/23 08:25:21;;;;;;;7.40;5.13;;;4.80;99.90;;;;;;4972378;28;20185;-73
2022/01/23 08:27:46;;;;;;;8.83;5.70;;;4.80;99.90;;;;;;4977519;28;20251;-73
2022/01/23 08:30:13;;;;;;;6.63;4.80;;;4.80;99.90;;;;;;4973346;28;20200;-73
2022/01/23 08:32:39;;;;;;;7.23;5.07;;;4.80;99.90;;;;;;4974479;28;20271;-73
2022/01/23 08:35:05;;;;;;;7.37;5.37;;;4.80;99.90;;;;;;4974175;28;20302;-73
2022/01/23 08:37:31;;;;;;;8.17;5.50;;;4.80;99.90;;;;;;4976900;28;20188;-73
2022/01/23 08:39:57;;;;;;;8.07;5.10;;;4.90;99.90;;;;;;4951135;28;20223;-73
2022/01/23 08:42:23;;;;;;;6.63;4.57;;;5.00;99.90;;;;;;4978541;28;20230;-73
2022/01/23 08:44:50;;;;;;;7.00;4.87;;;5.00;99.90;;;;;;4972727;28;20221;-73
2022/01/23 08:47:17;;;;;;;7.37;5.40;;;5.00;99.90;;;;;;4953151;28;20202;-73
2022/01/23 08:49:46;;;;;;;7.87;5.03;;;5.10;99.90;;;;;;4973676;28;20231;-75
2022/01/23 08:52:17;;;;;;;8.27;5.33;;;5.00;99.90;;;;;;4972641;28;20668;-72
2022/01/23 08:54:45;;;;;;;7.40;5.13;;;5.10;99.90;;;;;;4975894;28;21383;-72
2022/01/23 08:57:12;;;;;;;6.90;4.90;;;5.10;99.90;;;;;;4957019;28;20207;-73
2022/01/23 08:59:37;;;;;;;7.03;4.33;;;5.10;99.90;;;;;;4973656;28;20247;-73
2022/01/23 09:02:03;;;;;;;7.17;5.27;;;5.10;99.90;;;;;;4971357;28;20196;-73
2022/01/23 09:04:29;;;;;;;6.77;5.03;;;5.10;99.90;;;;;;4966743;28;20234;-73
2022/01/23 09:06:55;;;;;;;8.23;5.13;;;5.20;99.90;;;;;;4973955;28;20196;-73
2022/01/23 09:09:23;;;;;;;7.47;5.53;;;5.10;99.90;;;;;;4970590;28;20250;-73
2022/01/23 09:12:00;;;;;;;7.77;5.10;;;5.10;99.90;;;;;;4970294;28;20189;-73
2022/01/23 09:14:27;;;;;;;7.83;5.07;;;5.10;99.90;;;;;;4970361;28;20751;-73
2022/01/23 09:16:54;;;;;;;8.47;5.30;;;5.20;99.90;;;;;;4976334;28;20193;-73
2022/01/23 09:19:21;;;;;;;6.90;5.20;;;5.20;99.90;;;;;;4973262;28;20256;-73
2022/01/23 09:21:49;;;;;;;8.60;5.60;;;5.20;99.90;;;;;;4972500;28;20188;-73
2022/01/23 09:24:17;;;;;;;8.10;6.00;;;5.30;99.90;;;;;;4972085;28;20227;-73
2022/01/23 09:26:45;;;;;;;9.13;5.63;;;5.30;99.90;;;;;;4975007;28;20192;-73
2022/01/23 09:29:16;;;;;;;7.30;5.10;;;5.30;99.90;;;;;;4977752;28;20216;-73
2022/01/23 09:31:52;;;;;;;6.80;5.13;;;5.30;99.90;;;;;;4976340;28;20180;-73
2022/01/23 09:34:21;;;;;;;8.70;4.50;;;5.40;99.90;;;;;;4976369;28;20204;-73
2022/01/23 09:36:47;;;;;;;6.97;4.90;;;5.40;99.90;;;;;;4956717;28;20234;-73
2022/01/23 09:39:15;;;;;;;6.33;4.80;;;5.30;99.90;;;;;;4956525;28;20196;-73
2022/01/23 09:41:46;;;;;;;6.57;4.70;;;5.30;99.90;;;;;;4973748;28;20199;-73
2022/01/23 09:44:15;;;;;;;6.57;5.10;;;5.30;99.90;;;;;;4972701;28;20270;-73
2022/01/23 09:46:43;;;;;;;6.77;4.93;;;5.40;99.90;;;;;;4971431;28;20668;-72
2022/01/23 09:49:12;;;;;;;6.60;4.53;;;5.50;99.90;;;;;;4973627;28;20189;-73
2022/01/23 09:51:41;;;;;;;7.43;5.30;;;5.50;99.90;;;;;;4976670;28;20597;-73
2022/01/23 09:54:10;;;;;;;6.63;4.50;;;5.50;99.90;;;;;;4973146;28;20212;-73
2022/01/23 09:56:36;;;;;;;7.27;4.93;;;5.70;99.90;;;;;;4976965;28;20188;-73
2022/01/23 09:59:02;;;;;;;6.97;4.90;;;5.80;99.90;;;;;;4973437;28;20193;-73
2022/01/23 10:01:28;;;;;;;8.27;5.33;;;5.80;99.90;;;;;;4976709;28;20615;-73
2022/01/23 10:03:53;;;;;;;6.83;5.27;;;5.80;99.90;;;;;;4974500;28;20228;-74
2022/01/23 10:06:19;;;;;;;6.57;5.07;;;5.80;99.90;;;;;;4973577;28;20196;-73
2022/01/23 10:08:48;;;;;;;6.60;5.03;;;5.90;99.90;;;;;;4971766;28;20223;-74
2022/01/23 10:11:14;;;;;;;7.23;4.53;;;5.90;99.90;;;;;;4975477;28;20212;-73
2022/01/23 10:13:48;;;;;;;6.80;5.20;;;5.80;99.90;;;;;;4974894;28;20550;-73
2022/01/23 10:16:14;;;;;;;7.57;5.17;;;5.80;99.90;;;;;;4975171;28;20246;-73
2022/01/23 10:18:40;;;;;;;8.17;5.83;;;5.80;99.90;;;;;;4973641;28;20319;-73
2022/01/23 10:21:06;;;;;;;7.03;5.13;;;5.80;99.90;;;;;;4980358;28;20280;-73
2022/01/23 10:23:31;;;;;;;8.73;5.50;;;5.80;99.90;;;;;;4975032;28;20212;-73
2022/01/23 10:25:57;;;;;;;8.03;6.10;;;5.90;99.90;;;;;;4970301;28;20189;-73
2022/01/23 10:28:29;;;;;;;7.17;5.30;;;5.90;99.90;;;;;;4974703;28;20757;-73
2022/01/23 10:31:02;;;;;;;8.27;5.93;;;5.90;99.90;;;;;;4974993;28;20184;-73
2022/01/23 10:33:36;;;;;;;8.13;6.20;;;6.00;99.90;;;;;;4974705;28;20236;-74
2022/01/23 10:36:04;;;;;;;7.53;5.53;;;5.90;99.90;;;;;;4973943;28;20702;-72
2022/01/23 10:38:52;;;;;;;8.53;5.43;;;6.00;99.90;;;;;;4977078;28;20188;-75
2022/01/23 10:42:13;;;;;;;7.60;5.40;;;6.00;99.90;;;;;;4975544;28;20386;-72
2022/01/23 10:49:50;;;;;;;8.13;5.73;;;6.00;99.90;;;;;;4969737;28;20273;-73
2022/01/23 10:52:38;;;;;;;8.17;6.33;;;5.90;99.90;;;;;;4973776;28;20188;-71
2022/01/23 10:55:13;;;;;;;6.90;5.57;;;5.90;99.90;;;;;;4972371;28;20259;-74
2022/01/23 10:57:41;;;;;;;7.77;5.80;;;6.00;99.90;;;;;;4976349;28;20176;-74
2022/01/23 11:00:11;;;;;;;8.13;5.63;;;5.90;99.90;;;;;;4972805;28;20193;-73
2022/01/23 11:02:42;;;;;;;8.37;5.47;;;6.00;99.90;;;;;;4975958;28;20555;-74
2022/01/23 11:05:11;;;;;;;9.47;6.07;;;6.00;99.90;;;;;;4955736;28;20630;-72
2022/01/23 11:07:41;;;;;;;8.57;5.87;;;6.00;99.90;;;;;;4973494;28;20177;-72
2022/01/23 11:10:22;;;;;;;10.13;7.00;;;6.00;99.90;;;;;;4974084;28;20181;-72
2022/01/23 11:18:09;;;;;;;9.33;6.57;;;6.00;99.90;;;;;;4974316;28;20200;-72
2022/01/23 11:20:38;;;;;;;10.30;7.37;;;5.90;99.90;;;;;;4973575;28;20554;-72
2022/01/23 11:23:13;;;;;;;10.73;7.23;;;5.90;99.90;;;;;;4976878;28;20216;-72
2022/01/23 11:25:51;;;;;;;9.17;6.80;;;5.90;99.90;;;;;;4975856;28;20554;-72
2022/01/23 11:28:17;;;;;;;11.20;7.70;;;5.90;99.90;;;;;;4963383;28;20187;-72
2022/01/23 11:30:46;;;;;;;10.43;7.20;;;5.90;99.90;;;;;;4977460;28;20620;-72
2022/01/23 11:33:17;;;;;;;11.07;7.83;;;6.00;99.90;;;;;;4975879;28;20180;-73
2022/01/23 11:35:43;;;;;;;11.07;8.17;;;6.00;99.90;;;;;;4975220;28;20236;-73
2022/01/23 11:38:13;;;;;;;11.33;7.70;;;6.00;99.90;;;;;;4973701;28;20272;-76
2022/01/23 11:54:39;;;;;;;13.77;9.10;;;5.80;99.90;;;;;;4975943;28;20752;-72
2022/01/23 11:57:37;;;;;;;11.63;8.00;;;5.90;99.90;;;;;;4971964;28;20322;-75
2022/01/23 12:00:40;;;;;;;12.33;8.87;;;5.80;99.90;;;;;;4973910;28;20211;-75
2022/01/23 12:03:05;;;;;;;13.23;8.93;;;5.80;99.90;;;;;;4960712;28;20220;-74
2022/01/23 12:05:31;;;;;;;14.70;9.53;;;5.80;99.90;;;;;;4974179;28;20189;-74
2022/01/23 12:08:16;;;;;;;11.53;8.17;;;5.80;99.90;;;;;;4973753;28;20180;-76
2022/01/23 12:11:15;;;;;;;12.60;8.27;;;5.90;99.90;;;;;;4974873;28;20187;-75
2022/01/23 12:19:12;;;;;;;10.33;7.17;;;5.90;99.90;;;;;;4972476;28;20559;-74
2022/01/23 12:21:38;;;;;;;10.10;7.53;;;5.90;99.90;;;;;;4974919;28;20556;-74
2022/01/23 12:24:08;;;;;;;9.47;7.30;;;5.90;99.90;;;;;;4958016;28;20239;-76
2022/01/23 12:26:34;;;;;;;10.33;7.67;;;6.00;99.90;;;;;;4973060;28;20670;-74
2022/01/23 12:29:24;;;;;;;10.53;7.33;;;6.00;99.90;;;;;;4972617;28;20192;-74
2022/01/23 12:32:10;;;;;;;10.30;7.50;;;6.10;99.90;;;;;;4971617;28;20676;-73
2022/01/23 12:34:51;;;;;;;11.40;7.80;;;6.20;99.90;;;;;;4971792;28;20656;-75
2022/01/23 12:37:16;;;;;;;8.60;6.73;;;6.30;99.90;;;;;;4973422;28;20753;-75
2022/01/23 12:39:43;;;;;;;10.40;7.20;;;6.30;99.90;;;;;;4972277;28;20280;-73
2022/01/23 12:42:09;;;;;;;9.07;6.43;;;6.40;99.90;;;;;;4971112;28;20189;-73
2022/01/23 12:44:38;;;;;;;10.23;7.57;;;6.40;99.90;;;;;;4975867;28;20212;-76
2022/01/23 12:47:18;;;;;;;11.37;7.10;;;6.40;99.90;;;;;;4973654;28;20199;-77
2022/01/23 12:49:52;;;;;;;11.20;7.87;;;6.50;99.90;;;;;;4972302;28;20187;-76
2022/01/23 12:52:22;;;;;;;10.77;7.80;;;6.40;99.90;;;;;;4970607;28;20181;-74
2022/01/23 12:54:48;;;;;;;11.03;8.47;;;6.40;99.90;;;;;;4973575;28;20210;-73
2022/01/23 12:57:37;;;;;;;10.20;7.77;;;6.30;99.90;;;;;;4972393;28;20188;-75
2022/01/23 13:00:25;;;;;;;10.83;8.27;;;6.50;99.90;;;;;;4973880;28;20188;-74
2022/01/23 13:02:53;;;;;;;11.87;7.97;;;6.40;99.90;;;;;;4972748;28;20189;-74
2022/01/23 13:05:20;;;;;;;10.00;7.60;;;6.40;99.90;;;;;;4975057;28;20251;-77
2022/01/23 13:08:08;;;;;;;10.50;7.73;;;6.40;99.90;;;;;;4978052;28;20188;-74
2022/01/23 13:13:35;;;;;;;12.57;9.30;;;6.40;99.90;;;;;;4969139;28;20621;-77
2022/01/23 13:27:28;;;;;;;9.83;6.80;;;6.50;99.90;;;;;;4970758;28;20566;-77
2022/01/23 13:34:51;;;;;;;9.57;6.60;;;6.40;99.90;;;;;;4969504;28;20243;-73
2022/01/23 13:37:22;;;;;;;10.67;6.70;;;6.50;99.90;;;;;;4972447;28;20195;-76
2022/01/23 13:40:00;;;;;;;7.93;6.07;;;6.40;99.90;;;;;;4970511;28;20265;-74
2022/01/23 13:42:50;;;;;;;9.30;6.63;;;6.50;99.90;;;;;;4973523;28;20191;-74
2022/01/23 13:59:13;;;;;;;8.27;5.97;;;6.60;99.90;;;;;;4971485;28;20263;-77
2022/01/23 14:01:56;;;;;;;10.47;6.20;;;6.70;99.90;;;;;;4971384;28;20287;-73
2022/01/23 14:04:24;;;;;;;8.83;6.00;;;6.70;99.90;;;;;;4973572;28;20212;-74
2022/01/23 14:06:51;;;;;;;8.60;6.07;;;6.70;99.90;;;;;;4967106;28;20172;-73
2022/01/23 14:09:19;;;;;;;9.27;6.43;;;6.70;99.90;;;;;;4970370;28;20200;-74
2022/01/23 14:11:46;;;;;;;10.27;6.27;;;6.60;99.90;;;;;;4973621;28;20271;-74
2022/01/23 14:14:16;;;;;;;12.93;9.20;;;6.50;99.90;;;;;;4972231;28;20280;-76
2022/01/23 14:16:43;;;;;;;12.90;9.27;;;6.50;99.90;;;;;;4956387;28;20715;-74
2022/01/23 14:19:23;;;;;;;9.43;7.03;;;6.50;99.90;;;;;;4969698;28;20245;-73
2022/01/23 14:21:51;;;;;;;9.07;6.30;;;6.60;99.90;;;;;;4969883;28;20185;-73
2022/01/23 14:24:22;;;;;;;12.13;7.20;;;6.50;99.90;;;;;;4977399;28;20234;-77
2022/01/23 14:27:08;;;;;;;10.37;7.63;;;6.40;99.90;;;;;;4970573;28;20180;-74
2022/01/23 14:29:54;;;;;;;8.67;6.63;;;6.40;99.90;;;;;;4974627;28;20184;-74
2022/01/23 14:35:11;;;;;;;7.23;5.83;;;6.40;99.90;;;;;;4975358;28;20235;-76
2022/01/23 14:37:38;;;;;;;9.30;7.40;;;6.40;99.90;;;;;;4976625;28;20199;-74
2022/01/23 14:40:25;;;;;;;11.13;8.23;;;6.40;99.90;;;;;;4972151;28;20554;-75
2022/01/23 14:43:00;;;;;;;9.83;7.23;;;6.30;99.90;;;;;;4972675;28;20191;-74
2022/01/23 14:45:27;;;;;;;11.00;7.87;;;6.30;99.90;;;;;;4974332;28;20593;-74
2022/01/23 14:47:53;;;;;;;9.87;7.57;;;6.30;99.90;;;;;;4973819;28;20211;-75
2022/01/23 14:50:20;;;;;;;12.53;8.97;;;6.30;99.90;;;;;;4973403;28;20185;-75
2022/01/23 14:52:48;;;;;;;14.10;9.10;;;6.30;99.90;;;;;;4981720;28;20180;-74
2022/01/23 14:55:14;;;;;;;12.37;8.23;;;6.30;99.90;;;;;;4957381;28;20205;-73
2022/01/23 14:57:41;;;;;;;14.63;9.23;;;6.30;99.90;;;;;;4975324;28;20192;-74
2022/01/23 15:00:10;;;;;;;12.53;9.07;;;6.30;99.90;;;;;;4983758;28;20267;-73
2022/01/23 15:02:36;;;;;;;13.57;9.33;;;6.30;99.90;;;;;;4950771;28;20648;-74
2022/01/23 15:05:03;;;;;;;12.90;8.30;;;6.20;99.90;;;;;;4976187;28;20492;-74
2022/01/23 15:07:40;;;;;;;13.73;9.13;;;6.20;99.90;;;;;;4977077;28;20181;-74
2022/01/23 15:10:07;;;;;;;13.87;9.43;;;6.20;99.90;;;;;;4980070;28;20213;-74
2022/01/23 15:12:32;;;;;;;10.47;8.20;;;6.20;99.90;;;;;;4976765;28;20177;-74
2022/01/23 15:14:58;;;;;;;11.00;8.07;;;6.20;99.90;;;;;;4978002;28;20231;-76
2022/01/23 15:17:25;;;;;;;10.67;7.93;;;6.20;99.90;;;;;;4972920;28;20287;-74
2022/01/23 15:19:52;;;;;;;13.03;9.63;;;6.20;99.90;;;;;;4977120;28;20184;-75
2022/01/23 15:22:18;;;;;;;13.30;9.23;;;6.20;99.90;;;;;;4977322;28;20590;-74
2022/01/23 15:24:43;;;;;;;14.13;9.97;;;6.20;99.90;;;;;;4979601;28;20220;-73
2022/01/23 15:27:09;;;;;;;14.00;9.30;;;6.20;99.90;;;;;;4966764;28;20283;-74
2022/01/23 15:29:34;;;;;;;13.83;9.87;;;6.10;99.90;;;;;;4971199;28;20204;-75
2022/01/23 15:32:00;;;;;;;12.97;9.70;;;6.20;99.90;;;;;;4974587;28;20443;-75
2022/01/23 15:34:27;;;;;;;14.50;9.13;;;6.10;99.90;;;;;;4966210;28;20260;-76
2022/01/23 15:36:53;;;;;;;13.80;9.90;;;6.20;99.90;;;;;;4968900;28;20188;-74
2022/01/23 15:39:20;;;;;;;13.17;9.10;;;6.10;99.90;;;;;;4975080;28;20187;-72
2022/01/23 15:41:47;;;;;;;15.17;9.57;;;6.20;99.90;;;;;;4975257;28;20184;-72
2022/01/23 15:44:12;;;;;;;11.57;8.60;;;6.10;99.90;;;;;;4973611;28;20216;-74
2022/01/23 15:46:38;;;;;;;13.67;9.33;;;6.20;99.90;;;;;;4976139;28;20675;-74
2022/01/23 15:49:06;;;;;;;12.27;8.77;;;6.20;99.90;;;;;;4974666;28;20184;-74
2022/01/23 15:51:32;;;;;;;11.83;8.90;;;6.10;99.90;;;;;;4971176;28;20183;-74
2022/01/23 15:53:57;;;;;;;13.70;9.30;;;6.10;99.90;;;;;;4971069;28;20703;-74
2022/01/23 15:56:23;;;;;;;14.73;9.67;;;6.10;99.90;;;;;;4981249;28;20197;-78
2022/01/23 15:58:49;;;;;;;14.13;10.07;;;6.00;99.90;;;;;;4980847;28;20181;-73
2022/01/23 16:01:14;;;;;;;14.17;9.50;;;6.00;99.90;;;;;;4975905;28;20661;-73
2022/01/23 16:03:40;;;;;;;14.93;9.40;;;6.00;99.90;;;;;;4978488;28;20224;-74
2022/01/23 16:06:06;;;;;;;16.47;9.77;;;6.00;99.90;;;;;;4981064;28;20648;-73
2022/01/23 16:08:32;;;;;;;14.83;9.57;;;6.00;99.90;;;;;;4979373;28;20185;-72
2022/01/23 16:10:59;;;;;;;17.67;10.90;;;5.90;99.90;;;;;;4977147;28;20900;-76
2022/01/23 16:13:25;;;;;;;13.90;9.83;;;5.90;99.90;;;;;;4978714;28;20282;-75
2022/01/23 16:15:51;;;;;;;16.53;9.80;;;5.90;99.90;;;;;;4972174;28;20257;-74
2022/01/23 16:18:17;;;;;;;13.17;9.23;;;5.90;99.90;;;;;;4975689;28;20294;-73
2022/01/23 16:20:43;;;;;;;16.73;10.97;;;5.90;99.90;;;;;;4978546;28;20177;-74
2022/01/23 16:23:09;;;;;;;15.57;10.37;;;5.90;99.90;;;;;;4974960;28;20375;-74
2022/01/23 16:25:35;;;;;;;14.93;9.57;;;5.90;99.90;;;;;;4982730;28;20188;-76
2022/01/23 16:28:01;;;;;;;16.90;10.23;;;5.90;99.90;;;;;;4973617;28;20267;-73
2022/01/23 16:30:42;;;;;;;17.33;11.03;;;5.90;99.90;;;;;;4978573;28;20267;-74
2022/01/23 16:33:08;;;;;;;17.07;10.57;;;5.80;99.90;;;;;;4975817;28;20277;-75
2022/01/23 16:35:33;;;;;;;16.97;11.10;;;5.80;99.90;;;;;;4982426;28;20287;-74
2022/01/23 16:37:59;;;;;;;15.43;10.40;;;5.80;99.90;;;;;;4982232;28;20357;-76
2022/01/23 16:40:24;;;;;;;16.23;11.10;;;5.80;99.90;;;;;;4973575;28;20187;-72